createdAt,value
2019-03-24T00:01:19.141Z,5.30
2019-03-24T00:03:49.296Z,5.67
2019-03-24T00:06:19.342Z,4.53
2019-03-24T00:08:49.411Z,6.30
2019-03-24T00:11:19.500Z,5.90
2019-03-24T00:13:49.592Z,4.60
2019-03-24T00:16:19.676Z,4.50
2019-03-24T00:18:49.753Z,5.17
2019-03-24T00:21:19.840Z,5.37
2019-03-24T00:23:49.911Z,4.57
2019-03-24T00:26:19.990Z,4.90
2019-03-24T00:28:50.068Z,4.57
2019-03-24T00:31:20.147Z,5.00
2019-03-24T00:33:50.229Z,5.40
2019-03-24T00:36:20.303Z,5.17
2019-03-24T00:38:50.382Z,5.70
2019-03-24T00:41:20.462Z,6.03
2019-03-24T00:43:50.512Z,6.13
2019-03-24T00:46:20.643Z,5.27
2019-03-24T00:48:50.853Z,5.73
2019-03-24T00:51:20.930Z,5.03
2019-03-24T00:53:51.020Z,4.60
2019-03-24T00:56:21.127Z,4.23
2019-03-24T00:58:51.212Z,4.50
2019-03-24T01:01:21.306Z,5.17
2019-03-24T01:03:51.383Z,4.30
2019-03-24T01:06:21.483Z,4.07
2019-03-24T01:08:51.574Z,4.57
2019-03-24T01:11:21.651Z,4.73
2019-03-24T01:13:51.828Z,4.43
2019-03-24T01:16:21.902Z,4.80
2019-03-24T01:18:51.998Z,4.10
2019-03-24T01:21:22.123Z,4.23
2019-03-24T01:23:52.183Z,3.67
2019-03-24T01:26:22.255Z,3.40
2019-03-24T01:28:52.346Z,3.70
2019-03-24T01:31:22.459Z,3.13
2019-03-24T01:33:52.523Z,4.10
2019-03-24T01:36:22.573Z,3.50
2019-03-24T01:38:52.670Z,3.60
2019-03-24T01:41:22.752Z,3.43
2019-03-24T01:43:52.821Z,3.20
2019-03-24T01:46:22.902Z,2.77
2019-03-24T01:48:52.982Z,4.10
2019-03-24T01:51:23.044Z,4.50
2019-03-24T01:53:53.125Z,5.70
2019-03-24T01:56:23.223Z,6.40
2019-03-24T01:58:53.256Z,6.20
2019-03-24T02:01:23.341Z,6.20
2019-03-24T02:03:53.406Z,6.73
2019-03-24T02:06:23.479Z,5.50
2019-03-24T02:08:53.536Z,5.27
2019-03-24T02:11:23.611Z,5.00
2019-03-24T02:13:53.691Z,4.87
2019-03-24T02:16:23.831Z,4.90
2019-03-24T02:18:53.896Z,5.70
2019-03-24T02:21:23.970Z,6.00
2019-03-24T02:23:54.059Z,5.80
2019-03-24T02:26:24.145Z,5.60
2019-03-24T02:28:54.219Z,6.30
2019-03-24T02:31:24.280Z,6.03
2019-03-24T02:33:54.354Z,6.77
2019-03-24T02:36:24.433Z,6.60
2019-03-24T02:38:54.505Z,5.27
2019-03-24T02:41:24.710Z,5.40
2019-03-24T02:43:54.793Z,5.53
2019-03-24T02:46:25.194Z,4.77
2019-03-24T02:48:55.406Z,5.50
2019-03-24T02:51:25.496Z,4.70
2019-03-24T02:53:55.577Z,4.83
2019-03-24T02:56:25.655Z,3.67
2019-03-24T02:58:55.790Z,3.77
2019-03-24T03:01:25.850Z,3.47
2019-03-24T03:03:55.942Z,3.73
2019-03-24T03:06:26.028Z,4.03
2019-03-24T03:08:56.101Z,4.97
2019-03-24T03:11:26.233Z,4.80
2019-03-24T03:13:56.323Z,5.80
2019-03-24T03:16:37.801Z,6.17
2019-03-24T03:18:58.175Z,5.90
2019-03-24T03:21:28.275Z,5.80
2019-03-24T03:23:58.344Z,5.30
2019-03-24T03:26:28.414Z,5.67
2019-03-24T03:28:58.484Z,6.67
2019-03-24T03:31:28.558Z,7.93
2019-03-24T03:33:58.640Z,7.97
2019-03-24T03:36:28.748Z,6.40
2019-03-24T03:38:58.866Z,6.57
2019-03-24T03:41:28.925Z,7.73
2019-03-24T03:43:59.031Z,7.77
2019-03-24T03:46:29.125Z,6.70
2019-03-24T03:48:59.202Z,5.37
2019-03-24T03:51:29.285Z,6.07
2019-03-24T03:53:59.477Z,5.70
2019-03-24T03:56:29.628Z,5.13
2019-03-24T03:58:59.722Z,5.27
2019-03-24T04:01:29.878Z,5.90
2019-03-24T04:04:00.006Z,6.13
2019-03-24T04:06:30.057Z,6.10
2019-03-24T04:09:00.115Z,7.40
2019-03-24T04:11:30.244Z,6.33
2019-03-24T04:14:00.318Z,5.97
2019-03-24T04:16:30.435Z,6.60
2019-03-24T04:19:00.502Z,5.70
2019-03-24T04:21:30.609Z,7.33
2019-03-24T04:24:00.688Z,6.20
2019-03-24T04:26:30.746Z,7.97
2019-03-24T04:29:00.835Z,7.23
2019-03-24T04:31:30.900Z,7.60
2019-03-24T04:34:01.005Z,8.63
2019-03-24T04:36:31.201Z,7.37
2019-03-24T04:39:01.309Z,7.30
2019-03-24T04:41:31.351Z,6.43
2019-03-24T04:44:01.422Z,6.50
2019-03-24T04:46:31.486Z,6.00
2019-03-24T04:49:01.633Z,6.33
2019-03-24T04:51:31.729Z,6.70
2019-03-24T04:54:01.790Z,5.33
2019-03-24T04:56:31.856Z,6.10
2019-03-24T04:59:01.968Z,8.77
2019-03-24T05:01:32.129Z,6.90
2019-03-24T05:04:02.216Z,8.47
2019-03-24T05:06:32.294Z,7.10
2019-03-24T05:09:02.455Z,7.47
2019-03-24T05:11:32.514Z,7.70
2019-03-24T05:14:02.626Z,8.83
2019-03-24T05:16:32.698Z,8.90
2019-03-24T05:19:02.759Z,8.30
2019-03-24T05:21:32.868Z,7.67
2019-03-24T05:24:02.914Z,6.70
2019-03-24T05:26:32.995Z,6.80
2019-03-24T05:29:03.110Z,5.73
2019-03-24T05:31:33.185Z,5.87
2019-03-24T05:34:03.265Z,6.63
2019-03-24T05:36:33.325Z,7.53
2019-03-24T05:39:04.339Z,6.60
2019-03-24T05:41:34.405Z,6.40
2019-03-24T05:44:04.464Z,6.13
2019-03-24T05:46:34.570Z,7.40
2019-03-24T05:49:04.644Z,7.63
2019-03-24T05:51:34.719Z,7.93
2019-03-24T05:54:04.810Z,11.20
2019-03-24T05:56:35.009Z,10.23
2019-03-24T05:59:05.086Z,10.37
2019-03-24T06:01:35.158Z,10.00
2019-03-24T06:04:05.303Z,10.33
2019-03-24T06:06:35.419Z,9.17
2019-03-24T06:09:06.696Z,9.47
2019-03-24T06:11:36.789Z,9.13
2019-03-24T06:14:06.899Z,8.90
2019-03-24T06:16:38.007Z,9.20
2019-03-24T06:19:08.122Z,8.27
2019-03-24T06:21:38.200Z,9.90
2019-03-24T06:24:08.332Z,7.77
2019-03-24T06:26:38.409Z,8.60
2019-03-24T06:29:08.481Z,7.20
2019-03-24T06:31:38.538Z,8.33
2019-03-24T06:34:08.635Z,7.83
2019-03-24T06:36:38.733Z,9.07
2019-03-24T06:39:09.417Z,9.80
2019-03-24T06:41:39.504Z,7.57
2019-03-24T06:44:09.599Z,7.97
2019-03-24T06:46:39.665Z,6.47
2019-03-24T06:49:09.742Z,5.43
2019-03-24T06:51:39.860Z,5.33
2019-03-24T06:54:09.944Z,4.43
2019-03-24T06:56:40.070Z,4.97
2019-03-24T06:59:10.144Z,5.60
2019-03-24T07:01:40.452Z,3.93
2019-03-24T07:04:10.585Z,5.90
2019-03-24T07:06:40.669Z,5.03
2019-03-24T07:09:10.761Z,4.70
2019-03-24T07:11:41.096Z,4.30
2019-03-24T07:14:11.172Z,4.30
2019-03-24T07:16:41.268Z,3.87
2019-03-24T07:19:11.394Z,4.40
2019-03-24T07:21:41.507Z,4.40
2019-03-24T07:24:11.762Z,5.40
2019-03-24T07:26:41.846Z,3.83
2019-03-24T07:29:11.925Z,4.23
2019-03-24T07:31:42.570Z,4.53
2019-03-24T07:34:12.630Z,4.67
2019-03-24T07:36:42.744Z,3.27
2019-03-24T07:39:12.856Z,4.40
2019-03-24T07:41:42.939Z,3.20
2019-03-24T07:44:13.082Z,4.77
2019-03-24T07:46:43.209Z,3.87
2019-03-24T07:49:13.285Z,3.07
2019-03-24T07:51:43.470Z,4.37
2019-03-24T07:54:13.536Z,3.70
2019-03-24T07:56:43.614Z,3.73
2019-03-24T07:59:13.818Z,3.97
2019-03-24T08:01:43.890Z,3.53
2019-03-24T08:04:13.959Z,4.23
2019-03-24T08:06:44.033Z,3.13
2019-03-24T08:09:14.119Z,3.20
2019-03-24T08:11:44.219Z,2.87
2019-03-24T08:14:14.293Z,3.43
2019-03-24T08:16:44.353Z,4.13
2019-03-24T08:19:14.489Z,3.47
2019-03-24T08:21:44.658Z,4.70
2019-03-24T08:24:14.850Z,3.97
2019-03-24T08:26:45.020Z,3.83
2019-03-24T08:29:15.192Z,3.83
2019-03-24T08:31:45.552Z,5.50
2019-03-24T08:34:15.747Z,24.70
2019-03-24T08:36:45.932Z,10.30
2019-03-24T08:39:16.195Z,5.03
2019-03-24T08:41:46.535Z,5.17
2019-03-24T08:44:16.635Z,4.07
2019-03-24T08:46:47.198Z,5.60
2019-03-24T08:49:17.592Z,4.17
2019-03-24T08:51:47.722Z,4.20
2019-03-24T08:54:17.914Z,5.13
2019-03-24T08:56:48.089Z,5.30
2019-03-24T08:59:18.376Z,5.37
2019-03-24T09:01:48.654Z,4.87
2019-03-24T09:04:18.830Z,6.10
2019-03-24T09:06:48.952Z,4.40
2019-03-24T09:09:19.144Z,6.07
2019-03-24T09:11:49.345Z,4.30
2019-03-24T09:14:19.643Z,5.43
2019-03-24T09:16:49.846Z,5.50
2019-03-24T09:19:20.666Z,5.43
2019-03-24T09:21:55.934Z,5.30
2019-03-24T09:24:26.016Z,6.50
2019-03-24T09:26:56.164Z,5.83
2019-03-24T09:29:26.380Z,5.43
2019-03-24T09:31:56.553Z,5.80
2019-03-24T09:34:26.677Z,5.33
2019-03-24T09:36:56.905Z,5.40
2019-03-24T09:39:27.207Z,4.90
2019-03-24T09:41:57.485Z,6.57
2019-03-24T09:44:27.587Z,6.33
2019-03-24T09:46:57.724Z,8.63
2019-03-24T09:49:27.833Z,6.07
2019-03-24T09:51:57.982Z,6.47
2019-03-24T09:54:28.276Z,5.90
2019-03-24T09:56:58.414Z,5.90
2019-03-24T09:59:28.622Z,6.30
2019-03-24T10:01:58.742Z,6.37
2019-03-24T10:04:28.959Z,6.50
2019-03-24T10:06:59.180Z,6.67
2019-03-24T10:09:29.302Z,6.60
2019-03-24T10:11:59.383Z,7.83
2019-03-24T10:14:29.554Z,7.87
2019-03-24T10:16:59.732Z,7.57
2019-03-24T10:19:29.829Z,8.03
2019-03-24T10:21:59.935Z,7.80
2019-03-24T10:24:30.035Z,7.37
2019-03-24T10:27:00.204Z,9.43
2019-03-24T10:29:30.314Z,10.20
2019-03-24T10:32:00.419Z,7.87
2019-03-24T10:34:30.513Z,8.07
2019-03-24T10:37:00.736Z,8.10
2019-03-24T10:39:31.962Z,7.60
2019-03-24T10:42:02.291Z,6.77
2019-03-24T10:44:32.397Z,7.60
2019-03-24T10:47:02.595Z,7.00
2019-03-24T10:49:32.672Z,7.63
2019-03-24T10:52:02.874Z,7.73
2019-03-24T10:54:32.995Z,8.07
2019-03-24T10:57:05.354Z,7.47
2019-03-24T10:59:34.914Z,7.70
2019-03-24T11:02:05.049Z,7.73
2019-03-24T11:04:35.201Z,7.40
2019-03-24T11:07:05.413Z,7.50
2019-03-24T11:09:35.505Z,8.37
2019-03-24T11:12:05.628Z,8.63
2019-03-24T11:14:35.723Z,7.30
2019-03-24T11:17:05.868Z,7.17
2019-03-24T11:19:36.217Z,7.43
2019-03-24T11:22:06.424Z,7.00
2019-03-24T11:24:36.489Z,7.27
2019-03-24T11:27:06.608Z,7.30
2019-03-24T11:29:36.707Z,6.07
2019-03-24T11:32:06.801Z,6.30
2019-03-24T11:34:36.863Z,6.60
2019-03-24T11:37:06.957Z,6.10
2019-03-24T11:39:37.091Z,6.77
2019-03-24T11:42:07.228Z,6.43
2019-03-24T11:44:37.298Z,6.87
2019-03-24T11:47:07.363Z,6.63
2019-03-24T11:49:45.709Z,5.80
2019-03-24T11:52:09.350Z,6.53
2019-03-24T11:54:39.455Z,5.37
2019-03-24T11:57:09.552Z,9.13
2019-03-24T11:59:39.633Z,5.80
2019-03-24T12:02:09.725Z,6.00
2019-03-24T12:04:39.837Z,5.80
2019-03-24T12:07:10.017Z,6.17
2019-03-24T12:09:40.119Z,6.20
2019-03-24T12:12:10.477Z,5.90
2019-03-24T12:14:40.696Z,6.00
2019-03-24T12:17:10.782Z,6.60
2019-03-24T12:19:40.923Z,5.70
2019-03-24T12:22:11.011Z,6.00
2019-03-24T12:24:41.082Z,5.57
2019-03-24T12:27:11.202Z,5.87
2019-03-24T12:29:41.304Z,5.40
2019-03-24T12:32:11.461Z,5.40
2019-03-24T12:34:41.594Z,6.60
2019-03-24T12:37:11.665Z,6.37
2019-03-24T12:39:41.753Z,5.40
2019-03-24T12:42:11.998Z,6.80
2019-03-24T12:44:42.242Z,5.63
2019-03-24T12:47:12.336Z,7.17
2019-03-24T12:49:42.448Z,6.57
2019-03-24T12:52:13.188Z,6.63
2019-03-24T12:54:43.400Z,4.73
2019-03-24T12:57:13.483Z,5.33
2019-03-24T12:59:43.757Z,6.87
2019-03-24T13:02:13.837Z,7.10
2019-03-24T13:04:44.107Z,6.00
2019-03-24T13:07:14.291Z,6.60
2019-03-24T13:09:44.384Z,5.43
2019-03-24T13:12:14.604Z,5.80
2019-03-24T13:14:44.766Z,5.50
2019-03-24T13:17:14.874Z,5.70
2019-03-24T13:19:44.956Z,5.60
2019-03-24T13:22:14.995Z,5.03
2019-03-24T13:24:45.104Z,6.83
2019-03-24T13:27:15.191Z,5.70
2019-03-24T13:29:45.297Z,6.30
2019-03-24T13:32:15.361Z,5.43
2019-03-24T13:34:45.474Z,5.67
2019-03-24T13:37:15.563Z,4.73
2019-03-24T13:39:45.729Z,5.10
2019-03-24T13:42:15.830Z,5.47
2019-03-24T13:44:45.937Z,5.60
2019-03-24T13:47:16.010Z,6.47
2019-03-24T13:49:46.107Z,5.40
2019-03-24T13:52:16.212Z,6.23
2019-03-24T13:54:46.290Z,4.90
2019-03-24T13:57:16.464Z,7.00
2019-03-24T13:59:46.563Z,5.80
2019-03-24T14:02:16.722Z,5.07
2019-03-24T14:04:47.599Z,5.30
2019-03-24T14:07:17.808Z,4.90
2019-03-24T14:09:47.886Z,6.07
2019-03-24T14:12:18.041Z,6.47
2019-03-24T14:14:48.127Z,6.40
2019-03-24T14:17:18.296Z,6.17
2019-03-24T14:19:48.385Z,6.60
2019-03-24T14:22:18.492Z,4.67
2019-03-24T14:24:48.583Z,5.50
2019-03-24T14:27:18.687Z,5.00
2019-03-24T14:29:48.757Z,7.80
2019-03-24T14:32:18.854Z,4.87
2019-03-24T14:34:48.947Z,5.37
2019-03-24T14:37:19.047Z,5.07
2019-03-24T14:39:49.131Z,5.87
2019-03-24T14:42:19.218Z,6.43
2019-03-24T14:44:49.299Z,5.30
2019-03-24T14:47:19.437Z,9.07
2019-03-24T14:49:49.497Z,5.53
2019-03-24T14:52:19.589Z,5.80
2019-03-24T14:54:49.695Z,8.87
2019-03-24T14:57:19.790Z,6.57
2019-03-24T14:59:49.865Z,5.40
2019-03-24T15:02:19.986Z,6.77
2019-03-24T15:04:50.092Z,8.63
2019-03-24T15:07:20.203Z,6.97
2019-03-24T15:09:50.294Z,6.77
2019-03-24T15:12:20.407Z,5.60
2019-03-24T15:14:50.608Z,5.67
2019-03-24T15:17:20.692Z,6.70
2019-03-24T15:19:50.792Z,8.03
2019-03-24T15:22:20.943Z,6.00
2019-03-24T15:24:51.003Z,6.10
2019-03-24T15:27:21.113Z,7.73
2019-03-24T15:29:51.208Z,6.20
2019-03-24T15:32:21.282Z,5.97
2019-03-24T15:34:51.373Z,6.77
2019-03-24T15:37:21.450Z,6.63
2019-03-24T15:39:51.554Z,10.60
2019-03-24T15:42:21.645Z,9.77
2019-03-24T15:44:51.704Z,6.60
2019-03-24T15:47:21.796Z,7.17
2019-03-24T15:49:52.051Z,6.80
2019-03-24T15:52:22.182Z,13.50
2019-03-24T15:54:52.440Z,12.23
2019-03-24T15:57:22.539Z,10.97
2019-03-24T15:59:52.633Z,15.40
2019-03-24T16:02:22.721Z,16.30
2019-03-24T16:04:52.879Z,14.50
2019-03-24T16:07:22.958Z,12.77
2019-03-24T16:09:53.067Z,13.47
2019-03-24T16:12:23.148Z,15.80
2019-03-24T16:14:53.308Z,13.90
2019-03-24T16:17:23.442Z,18.13
2019-03-24T16:19:53.554Z,23.40
2019-03-24T16:22:23.717Z,18.03
2019-03-24T16:24:53.787Z,16.80
2019-03-24T16:27:23.950Z,12.20
2019-03-24T16:29:54.031Z,13.10
2019-03-24T16:32:24.146Z,13.23
2019-03-24T16:34:54.277Z,11.27
2019-03-24T16:37:24.539Z,10.83
2019-03-24T16:39:54.630Z,11.70
2019-03-24T16:42:24.734Z,11.90
2019-03-24T16:44:54.882Z,11.50
2019-03-24T16:47:25.014Z,13.60
2019-03-24T16:49:55.145Z,16.03
2019-03-24T16:52:25.236Z,17.20
2019-03-24T16:54:55.322Z,15.47
2019-03-24T16:57:25.471Z,13.50
2019-03-24T16:59:55.559Z,12.43
2019-03-24T17:02:25.746Z,13.40
2019-03-24T17:04:55.841Z,16.33
2019-03-24T17:07:25.936Z,17.80
2019-03-24T17:09:56.025Z,18.10
2019-03-24T17:12:26.157Z,16.07
2019-03-24T17:14:56.278Z,13.87
2019-03-24T17:17:26.367Z,13.27
2019-03-24T17:19:56.470Z,12.80
2019-03-24T17:22:26.564Z,13.23
2019-03-24T17:24:56.810Z,14.37
2019-03-24T17:27:27.015Z,14.73
2019-03-24T17:29:57.132Z,14.50
2019-03-24T17:32:27.514Z,15.47
2019-03-24T17:34:57.609Z,15.93
2019-03-24T17:37:29.949Z,16.23
2019-03-24T17:39:59.526Z,15.47
2019-03-24T17:42:29.735Z,15.20
2019-03-24T17:44:59.841Z,13.10
2019-03-24T17:47:30.101Z,12.47
2019-03-24T17:50:00.374Z,14.13
2019-03-24T17:52:30.533Z,14.63
2019-03-24T17:55:00.668Z,12.70
2019-03-24T17:57:30.794Z,13.70
2019-03-24T18:00:00.905Z,14.60
2019-03-24T18:02:32.631Z,17.20
2019-03-24T18:05:02.844Z,20.23
2019-03-24T18:07:33.014Z,18.40
2019-03-24T18:10:03.162Z,19.77
2019-03-24T18:12:33.291Z,24.77
2019-03-24T18:15:03.361Z,20.10
2019-03-24T18:17:33.498Z,18.70
2019-03-24T18:20:03.790Z,16.03
2019-03-24T18:22:33.878Z,16.13
2019-03-24T18:25:03.958Z,16.60
2019-03-24T18:27:34.060Z,15.80
2019-03-24T18:30:04.428Z,15.60
2019-03-24T18:32:34.565Z,13.60
2019-03-24T18:35:04.731Z,13.23
2019-03-24T18:37:34.894Z,12.77
2019-03-24T18:40:05.203Z,14.00
2019-03-24T18:42:35.324Z,13.90
2019-03-24T18:45:05.821Z,20.07
2019-03-24T18:47:35.963Z,27.53
2019-03-24T18:50:06.472Z,32.83
2019-03-24T18:52:36.615Z,36.90
2019-03-24T18:55:07.000Z,37.87
2019-03-24T18:57:37.103Z,35.87
2019-03-24T19:00:07.877Z,30.40
2019-03-24T19:02:37.981Z,33.03
2019-03-24T19:05:08.173Z,26.23
2019-03-24T19:07:38.309Z,29.13
2019-03-24T19:10:08.691Z,32.57
2019-03-24T19:12:38.813Z,28.80
2019-03-24T19:15:08.946Z,29.63
2019-03-24T19:17:39.037Z,26.97
2019-03-24T19:20:09.312Z,22.20
2019-03-24T19:22:39.433Z,21.87
2019-03-24T19:25:10.011Z,15.83
2019-03-24T19:27:40.119Z,12.90
2019-03-24T19:30:11.169Z,11.23
2019-03-24T19:32:41.300Z,12.00
2019-03-24T19:35:11.403Z,10.90
2019-03-24T19:37:41.662Z,10.80
2019-03-24T19:40:26.347Z,8.43
2019-03-24T19:42:56.803Z,9.80
2019-03-24T19:45:27.084Z,8.63
2019-03-24T19:47:57.185Z,6.93
2019-03-24T19:50:27.338Z,8.50
2019-03-24T19:52:57.412Z,8.37
2019-03-24T19:55:27.498Z,7.00
2019-03-24T19:57:58.180Z,8.53
2019-03-24T20:00:28.262Z,9.47
2019-03-24T20:02:58.442Z,7.50
2019-03-24T20:05:29.458Z,7.43
2019-03-24T20:07:59.855Z,8.07
2019-03-24T20:10:29.945Z,7.10
2019-03-24T20:13:00.028Z,7.53
2019-03-24T20:15:30.175Z,6.37
2019-03-24T20:18:00.324Z,6.33
2019-03-24T20:20:30.410Z,7.43
2019-03-24T20:23:00.493Z,6.73
2019-03-24T20:25:30.592Z,6.60
2019-03-24T20:28:00.662Z,6.63
2019-03-24T20:30:30.783Z,4.90
2019-03-24T20:33:00.874Z,6.70
2019-03-24T20:35:30.972Z,6.27
2019-03-24T20:38:01.066Z,5.43
2019-03-24T20:40:31.179Z,5.60
2019-03-24T20:43:01.259Z,6.13
2019-03-24T20:45:31.400Z,6.57
2019-03-24T20:48:01.481Z,5.33
2019-03-24T20:50:31.678Z,5.60
2019-03-24T20:53:05.620Z,5.90
2019-03-24T20:55:34.558Z,7.20
2019-03-24T20:58:04.815Z,6.90
2019-03-24T21:00:35.920Z,5.97
2019-03-24T21:03:07.532Z,6.23
2019-03-24T21:05:37.939Z,7.10
2019-03-24T21:08:08.077Z,7.00
2019-03-24T21:10:38.184Z,7.53
2019-03-24T21:13:08.287Z,7.17
2019-03-24T21:15:38.401Z,6.73
2019-03-24T21:18:08.457Z,6.07
2019-03-24T21:20:38.545Z,6.40
2019-03-24T21:23:09.619Z,6.67
2019-03-24T21:25:39.695Z,6.00
2019-03-24T21:28:09.782Z,4.83
2019-03-24T21:30:40.641Z,5.80
2019-03-24T21:33:10.757Z,6.23
2019-03-24T21:35:40.821Z,6.50
2019-03-24T21:38:10.904Z,5.80
2019-03-24T21:40:40.994Z,6.40
2019-03-24T21:43:11.115Z,6.33
2019-03-24T21:45:41.186Z,6.30
2019-03-24T21:48:11.281Z,5.07
2019-03-24T21:50:41.352Z,6.00
2019-03-24T21:53:11.452Z,6.73
2019-03-24T21:55:41.573Z,7.33
2019-03-24T21:58:11.724Z,7.43
2019-03-24T22:00:41.874Z,6.40
2019-03-24T22:03:11.999Z,6.40
2019-03-24T22:05:42.084Z,7.90
2019-03-24T22:08:12.192Z,7.63
2019-03-24T22:10:42.254Z,6.93
2019-03-24T22:13:12.338Z,7.30
2019-03-24T22:15:42.435Z,8.13
2019-03-24T22:18:12.624Z,7.17
2019-03-24T22:20:48.903Z,6.40
2019-03-24T22:23:14.567Z,7.10
2019-03-24T22:25:44.647Z,6.77
2019-03-24T22:28:14.737Z,7.60
2019-03-24T22:30:44.875Z,6.60
2019-03-24T22:33:14.947Z,6.63
2019-03-24T22:35:47.127Z,7.63
2019-03-24T22:38:16.845Z,7.07
2019-03-24T22:40:46.907Z,8.17
2019-03-24T22:43:16.969Z,8.13
2019-03-24T22:45:47.060Z,7.20
2019-03-24T22:48:17.124Z,6.00
2019-03-24T22:50:47.206Z,5.57
2019-03-24T22:53:17.285Z,6.13
2019-03-24T22:55:47.389Z,7.83
2019-03-24T22:58:17.461Z,7.30
2019-03-24T23:00:56.922Z,6.80
2019-03-24T23:03:27.004Z,7.70
2019-03-24T23:05:57.067Z,7.13
2019-03-24T23:08:27.155Z,6.80
2019-03-24T23:10:57.327Z,7.10
2019-03-24T23:13:27.433Z,7.63
2019-03-24T23:15:57.499Z,5.70
2019-03-24T23:18:27.578Z,5.70
2019-03-24T23:20:57.653Z,7.60
2019-03-24T23:23:27.745Z,12.50
2019-03-24T23:25:57.946Z,11.33
2019-03-24T23:28:28.006Z,9.13
2019-03-24T23:30:58.094Z,10.60
2019-03-24T23:33:28.163Z,9.53
2019-03-24T23:35:58.249Z,11.27
2019-03-24T23:38:28.331Z,8.10
2019-03-24T23:40:58.428Z,8.20
2019-03-24T23:43:28.507Z,9.00
2019-03-24T23:45:58.570Z,8.87
2019-03-24T23:48:28.606Z,8.97
2019-03-24T23:50:58.700Z,10.50
2019-03-24T23:53:28.775Z,8.70
2019-03-24T23:55:58.854Z,10.47
2019-03-24T23:58:40.410Z,9.97
